Buffville, Kansas
Current Conditions -  °F | °C
As of 12:52 PM on Sunday 23 Nov 2014 (Local Time) from KPPF Reporting Station
Overcast Overcast  
Wind Chill: 60°   Ceiling: 1600
Heat Index: 60°   Visibility: 10mi
Dew Point: 55°   Wind: 6mph
Humidity: 83%   Direction: 240°WSW
Pressure: 29.37"   Gusts: NA
Location:  37.428°N, 95.6341°W
Report Text: KPPF 231852Z AUTO 24005KT 10SM BKN016 OVC025 16/13 A2937 RMK AO2 SLP940 T01560128
Loading
Personal Weather Stations






























Interactive Weather Map New forecast layout! Learn more

10-Day Weather Forecast

Advertisements
Track Severe Weather on mobile